Merkelbeek, Netherlands
Current Conditions -  °F | °C
As of 6:50 AM on Wednesday 22 Oct 2014 (Local Time) from ETNG Reporting Station
Light Rain Light Rain  
Wind Chill: 37°   Ceiling: 3000
Heat Index: 45°   Visibility: 6mi
Dew Point: 43°   Wind: 18mph
Humidity: 93%   Direction: 270°W
Pressure: 30"   Gusts: NA
Location:  50.95°N, 5.94°E
Report Text: ETNG 220450Z 27016KT 9999 -RA FEW015 BKN030 07/06 Q1016
Loading
Personal Weather Stations






























Interactive Weather Map
Tropical Storm Tracking
New forecast layout! Learn more

10-Day Weather Forecast

Advertisements
Track Severe Weather on mobile